Time;durP1;ratioP1;P1;durP2;ratioP2;P2;SDS_P1;SDS_P2;PMS_P1;PMS_P2;Temp;Humidity;BMP_temperature;BMP_pressure;BME280_temperature;BME280_humidity;BME280_pressure;Samples;Min_cycle;Max_cycle;Signal;HPM_P1;HPM_P2
2023/12/08 00:02:23;;;;;;;15.20;9.25;;;2.30;99.90;;;;;;5096253;28;20036;-66
2023/12/08 00:04:48;;;;;;;12.52;8.70;;;2.20;99.90;;;;;;5095970;28;20036;-66
2023/12/08 00:07:14;;;;;;;12.07;9.07;;;2.20;99.90;;;;;;5095793;28;20132;-65
2023/12/08 00:09:39;;;;;;;11.35;8.77;;;2.20;99.90;;;;;;5096757;28;20486;-65
2023/12/08 00:12:05;;;;;;;11.50;9.43;;;2.10;99.90;;;;;;5091648;28;20101;-65
2023/12/08 00:14:31;;;;;;;11.32;9.00;;;2.10;99.90;;;;;;5096010;28;20455;-65
2023/12/08 00:16:56;;;;;;;10.60;8.63;;;2.20;99.90;;;;;;5102140;27;20123;-66
2023/12/08 00:19:22;;;;;;;11.88;9.18;;;2.10;99.90;;;;;;5099714;27;20027;-65
2023/12/08 00:21:48;;;;;;;11.77;9.27;;;2.20;99.90;;;;;;5097724;28;20064;-65
2023/12/08 00:24:13;;;;;;;11.23;9.07;;;2.20;99.90;;;;;;5135833;27;20040;-65
2023/12/08 00:26:39;;;;;;;11.43;9.20;;;2.10;99.90;;;;;;5099306;27;20535;-65
2023/12/08 00:29:04;;;;;;;10.52;9.23;;;2.20;99.90;;;;;;5099455;27;20036;-65
2023/12/08 00:31:30;;;;;;;11.32;9.05;;;2.20;99.90;;;;;;5100528;27;20080;-65
2023/12/08 00:33:56;;;;;;;12.90;9.82;;;2.30;99.90;;;;;;5098929;28;20032;-65
2023/12/08 00:36:22;;;;;;;11.05;9.88;;;2.20;99.90;;;;;;5099546;27;20131;-65
2023/12/08 00:38:48;;;;;;;10.85;9.30;;;2.30;99.90;;;;;;5100668;28;20092;-65
2023/12/08 00:41:14;;;;;;;10.43;8.70;;;2.20;99.90;;;;;;5101700;28;20052;-65
2023/12/08 00:43:39;;;;;;;11.13;9.02;;;2.20;99.90;;;;;;5102082;28;20036;-65
2023/12/08 00:46:05;;;;;;;11.50;9.13;;;2.20;99.90;;;;;;5102070;28;20073;-65
2023/12/08 00:48:31;;;;;;;11.40;9.68;;;2.30;99.90;;;;;;5099346;27;20397;-65
2023/12/08 00:50:56;;;;;;;10.73;8.80;;;2.20;99.90;;;;;;5097325;28;20104;-65
2023/12/08 00:53:22;;;;;;;11.45;10.05;;;2.20;99.90;;;;;;5101301;27;20486;-65
2023/12/08 00:55:47;;;;;;;12.25;10.48;;;2.20;99.90;;;;;;5098592;27;20075;-65
2023/12/08 00:58:16;;;;;;;11.10;9.65;;;2.20;99.90;;;;;;5096404;28;20048;-65
2023/12/08 01:00:43;;;;;;;13.27;10.63;;;2.20;99.90;;;;;;5130744;27;20081;-65
2023/12/08 01:03:09;;;;;;;12.88;9.43;;;2.20;99.90;;;;;;5100217;28;20115;-65
2023/12/08 01:05:34;;;;;;;13.43;11.55;;;2.20;99.90;;;;;;5098269;28;20446;-66
2023/12/08 01:08:00;;;;;;;12.65;10.80;;;2.20;99.90;;;;;;5100007;28;20036;-66
2023/12/08 01:10:25;;;;;;;13.35;11.23;;;2.10;99.90;;;;;;5100089;28;20111;-65
2023/12/08 01:12:51;;;;;;;12.20;10.40;;;2.20;99.90;;;;;;5099799;28;20036;-65
2023/12/08 01:15:16;;;;;;;13.27;11.48;;;2.10;99.90;;;;;;5100676;27;20104;-65
2023/12/08 01:17:44;;;;;;;14.77;10.10;;;2.10;99.90;;;;;;5097268;27;20087;-65
2023/12/08 01:20:10;;;;;;;14.02;11.30;;;2.10;99.90;;;;;;5100188;28;20450;-65
2023/12/08 01:22:35;;;;;;;14.25;11.13;;;2.10;99.90;;;;;;5099889;27;20046;-66
2023/12/08 01:25:01;;;;;;;15.63;10.88;;;2.10;99.90;;;;;;5097768;28;20512;-65
2023/12/08 01:27:27;;;;;;;13.07;10.45;;;2.00;99.90;;;;;;5098975;27;20048;-65
2023/12/08 01:29:52;;;;;;;14.82;11.57;;;2.10;99.90;;;;;;5097124;27;20035;-65
2023/12/08 01:32:18;;;;;;;14.23;12.20;;;2.00;99.90;;;;;;5098307;28;20264;-65
2023/12/08 01:34:44;;;;;;;13.27;11.23;;;2.00;99.90;;;;;;5100447;28;20100;-65
2023/12/08 01:37:09;;;;;;;14.95;12.18;;;1.90;99.90;;;;;;5100505;28;20055;-66
2023/12/08 01:39:35;;;;;;;15.57;12.27;;;2.00;99.90;;;;;;5094630;28;20417;-66
2023/12/08 01:42:02;;;;;;;12.65;11.30;;;1.90;99.90;;;;;;5097000;27;20489;-65
2023/12/08 01:44:27;;;;;;;15.65;11.65;;;2.00;99.90;;;;;;5096744;27;20032;-65
2023/12/08 01:46:53;;;;;;;12.85;11.52;;;2.00;99.90;;;;;;5096797;27;20036;-66
2023/12/08 01:49:19;;;;;;;14.98;12.20;;;1.90;99.90;;;;;;5096978;28;20075;-66
2023/12/08 01:51:45;;;;;;;15.32;11.35;;;2.00;99.90;;;;;;5096500;27;20486;-66
2023/12/08 01:54:12;;;;;;;15.35;12.38;;;2.00;99.90;;;;;;5101039;27;20549;-66
2023/12/08 01:56:38;;;;;;;19.25;13.23;;;1.90;99.90;;;;;;5098712;28;20074;-65
2023/12/08 01:59:04;;;;;;;15.57;12.85;;;2.00;99.90;;;;;;5099365;28;20067;-65
2023/12/08 02:01:30;;;;;;;17.85;12.20;;;1.90;99.90;;;;;;5099513;27;20477;-65
2023/12/08 02:03:56;;;;;;;14.70;12.52;;;2.00;99.90;;;;;;5133407;27;20051;-65
2023/12/08 02:06:22;;;;;;;18.63;14.35;;;1.90;99.90;;;;;;5094495;27;20043;-65
2023/12/08 02:08:47;;;;;;;13.65;12.18;;;2.00;99.90;;;;;;5101715;27;20047;-65
2023/12/08 02:11:13;;;;;;;15.48;12.27;;;2.00;99.90;;;;;;5098496;27;20188;-65
2023/12/08 02:13:40;;;;;;;14.63;12.90;;;1.90;99.90;;;;;;5099445;27;20031;-65
2023/12/08 02:16:39;;;;;;;13.98;12.23;;;1.90;99.90;;;;;;5095205;27;20058;-65
2023/12/08 02:19:07;;;;;;;16.75;12.70;;;1.90;99.90;;;;;;5036133;28;20517;-65
2023/12/08 02:21:34;;;;;;;17.25;13.52;;;1.90;99.90;;;;;;5099392;28;20047;-65
2023/12/08 02:23:59;;;;;;;14.82;12.93;;;1.90;99.90;;;;;;5100431;27;20031;-65
2023/12/08 02:26:25;;;;;;;15.52;12.48;;;1.90;99.90;;;;;;5097694;27;20048;-65
2023/12/08 02:28:51;;;;;;;15.43;13.45;;;1.90;99.90;;;;;;5096962;27;20047;-66
2023/12/08 02:31:22;;;;;;;14.73;12.63;;;1.80;99.90;;;;;;5095930;28;20454;-65
2023/12/08 02:33:50;;;;;;;16.42;13.15;;;1.80;99.90;;;;;;5098052;28;20093;-65
2023/12/08 02:36:17;;;;;;;14.75;12.85;;;1.80;99.90;;;;;;5098515;27;20043;-65
2023/12/08 02:38:45;;;;;;;16.35;13.63;;;1.80;99.90;;;;;;5094226;28;20132;-65
2023/12/08 02:41:10;;;;;;;15.60;13.95;;;1.80;99.90;;;;;;5097533;28;20543;-65
2023/12/08 02:43:36;;;;;;;17.15;13.35;;;1.90;99.90;;;;;;5102595;28;20044;-65
2023/12/08 02:46:01;;;;;;;16.77;13.05;;;1.80;99.90;;;;;;5097950;27;20090;-65
2023/12/08 02:48:27;;;;;;;16.05;13.48;;;1.80;99.90;;;;;;5095411;28;20028;-65
2023/12/08 02:50:53;;;;;;;17.45;12.90;;;1.80;99.90;;;;;;5097932;27;20056;-65
2023/12/08 02:53:18;;;;;;;16.25;13.38;;;1.70;99.90;;;;;;5112107;27;20123;-65
2023/12/08 02:55:44;;;;;;;15.75;13.52;;;1.80;99.90;;;;;;5098722;27;20529;-65
2023/12/08 02:58:09;;;;;;;14.30;12.40;;;1.80;99.90;;;;;;5098773;27;20093;-65
2023/12/08 03:00:35;;;;;;;14.82;13.10;;;1.80;99.90;;;;;;5079981;28;20044;-65
2023/12/08 03:03:00;;;;;;;18.17;14.15;;;1.80;99.90;;;;;;5093480;28;20438;-65
2023/12/08 03:05:26;;;;;;;15.93;13.52;;;1.80;99.90;;;;;;5099068;28;20100;-65
2023/12/08 03:07:52;;;;;;;16.13;13.93;;;1.80;99.90;;;;;;5097090;28;20055;-65
2023/12/08 03:10:18;;;;;;;17.67;14.05;;;1.70;99.90;;;;;;5098972;27;20036;-65
2023/12/08 03:12:43;;;;;;;15.43;12.80;;;1.80;99.90;;;;;;5093256;28;20032;-65
2023/12/08 03:15:09;;;;;;;20.35;14.32;;;1.70;99.90;;;;;;5096681;28;20089;-65
2023/12/08 03:17:36;;;;;;;15.05;13.43;;;1.80;99.90;;;;;;5092448;28;20041;-65
2023/12/08 03:20:02;;;;;;;17.02;14.93;;;1.80;99.90;;;;;;5093214;28;20075;-65
2023/12/08 03:22:27;;;;;;;16.70;14.18;;;1.70;99.90;;;;;;5095659;28;20087;-65
2023/12/08 03:24:53;;;;;;;15.88;13.80;;;1.70;99.90;;;;;;5096018;28;20044;-65
2023/12/08 03:27:19;;;;;;;16.25;14.45;;;1.70;99.90;;;;;;5098410;28;20098;-66
2023/12/08 03:29:44;;;;;;;18.13;14.60;;;1.70;99.90;;;;;;5127674;27;20035;-66
2023/12/08 03:32:10;;;;;;;18.98;14.25;;;1.70;99.90;;;;;;5095351;28;20537;-66
2023/12/08 03:34:37;;;;;;;16.73;13.02;;;1.60;99.90;;;;;;5094972;28;20444;-66
2023/12/08 03:37:03;;;;;;;16.25;14.23;;;1.60;99.90;;;;;;5093638;28;20047;-66
2023/12/08 03:39:28;;;;;;;17.17;14.10;;;1.50;99.90;;;;;;5096035;28;20040;-66
2023/12/08 03:41:54;;;;;;;17.92;14.98;;;1.40;99.90;;;;;;5096077;28;20035;-66
2023/12/08 03:44:19;;;;;;;20.23;15.85;;;1.40;99.90;;;;;;5096228;28;20098;-65
2023/12/08 03:46:45;;;;;;;16.02;12.75;;;1.40;99.90;;;;;;5079652;28;20079;-65
2023/12/08 03:49:10;;;;;;;16.52;14.00;;;1.40;99.90;;;;;;5095770;27;20032;-65
2023/12/08 03:51:36;;;;;;;19.85;15.05;;;1.40;99.90;;;;;;5100752;28;20051;-65
2023/12/08 03:54:02;;;;;;;19.13;15.98;;;1.40;99.90;;;;;;5101264;28;20481;-65
2023/12/08 03:56:28;;;;;;;18.75;15.88;;;1.30;99.90;;;;;;5102121;28;20518;-65
2023/12/08 03:58:53;;;;;;;17.80;15.32;;;1.30;99.90;;;;;;5103021;28;20482;-65
2023/12/08 04:01:19;;;;;;;18.75;15.55;;;1.30;99.90;;;;;;5102052;28;20034;-65
2023/12/08 04:03:46;;;;;;;18.20;14.27;;;1.30;99.90;;;;;;5103521;27;20120;-66
2023/12/08 04:06:11;;;;;;;19.85;14.90;;;1.30;99.90;;;;;;5101819;27;20497;-65
2023/12/08 04:08:37;;;;;;;21.35;16.48;;;1.30;99.90;;;;;;5099920;28;20037;-66
2023/12/08 04:11:03;;;;;;;20.55;16.45;;;1.20;99.90;;;;;;5102460;27;20035;-66
2023/12/08 04:13:29;;;;;;;20.58;15.30;;;1.20;99.90;;;;;;5099244;28;20393;-66
2023/12/08 04:15:54;;;;;;;20.88;16.23;;;1.20;99.90;;;;;;5098726;27;20036;-66
2023/12/08 04:18:20;;;;;;;21.60;16.08;;;1.20;99.90;;;;;;5098940;27;21092;-66
2023/12/08 04:20:45;;;;;;;23.70;16.23;;;1.20;99.90;;;;;;5101472;27;20665;-66
2023/12/08 04:23:11;;;;;;;21.73;15.90;;;1.10;99.90;;;;;;5098846;28;20067;-66
2023/12/08 04:25:37;;;;;;;24.65;15.43;;;1.10;99.90;;;;;;5099534;27;20040;-65
2023/12/08 04:28:03;;;;;;;24.15;16.00;;;1.10;99.90;;;;;;5100456;27;20056;-65
2023/12/08 04:30:29;;;;;;;23.17;16.65;;;1.10;99.90;;;;;;5101351;27;20174;-65
2023/12/08 04:32:55;;;;;;;23.85;17.48;;;1.10;99.90;;;;;;5101623;27;20111;-65
2023/12/08 04:35:21;;;;;;;25.63;17.00;;;1.10;99.90;;;;;;5098516;27;20122;-66
2023/12/08 04:37:47;;;;;;;25.23;18.67;;;1.10;99.90;;;;;;5098688;28;20493;-66
2023/12/08 04:40:13;;;;;;;22.77;18.00;;;1.10;99.90;;;;;;5097175;27;20035;-66
2023/12/08 04:42:38;;;;;;;27.02;18.75;;;1.10;99.90;;;;;;5103447;27;20609;-66
2023/12/08 04:45:05;;;;;;;28.13;17.25;;;1.10;99.90;;;;;;5102287;27;20058;-66
2023/12/08 04:47:30;;;;;;;26.05;17.17;;;1.10;99.90;;;;;;5099878;27;20032;-65
2023/12/08 04:49:56;;;;;;;27.90;18.55;;;1.10;99.90;;;;;;5100112;27;20074;-66
2023/12/08 04:52:22;;;;;;;24.55;18.00;;;1.10;99.90;;;;;;5101663;27;20043;-66
2023/12/08 04:54:47;;;;;;;25.20;17.08;;;1.00;99.90;;;;;;5098396;28;20359;-66
2023/12/08 04:57:13;;;;;;;24.77;17.48;;;1.10;99.90;;;;;;5100267;27;20027;-66
2023/12/08 04:59:39;;;;;;;24.20;17.00;;;1.10;99.90;;;;;;5099141;27;20114;-66
2023/12/08 05:02:05;;;;;;;26.38;17.02;;;1.10;99.90;;;;;;5098388;27;20127;-66
2023/12/08 05:04:31;;;;;;;25.67;17.13;;;1.00;99.90;;;;;;5097949;28;20564;-66
2023/12/08 05:06:57;;;;;;;26.77;18.20;;;1.10;99.90;;;;;;5102621;27;20047;-66
2023/12/08 05:09:22;;;;;;;26.98;19.08;;;1.10;99.90;;;;;;5098504;27;20039;-66
2023/12/08 05:11:48;;;;;;;26.50;17.30;;;1.00;99.90;;;;;;5096608;28;20041;-66
2023/12/08 05:14:13;;;;;;;26.08;17.35;;;1.10;99.90;;;;;;5101972;27;20040;-66
2023/12/08 05:16:39;;;;;;;26.70;18.80;;;1.10;99.90;;;;;;5098907;28;20389;-66
2023/12/08 05:19:05;;;;;;;28.80;18.20;;;1.10;99.90;;;;;;5099440;27;20155;-66
2023/12/08 05:21:30;;;;;;;25.75;17.25;;;1.10;99.90;;;;;;5098646;28;20046;-66
2023/12/08 05:23:56;;;;;;;26.15;18.67;;;1.10;99.90;;;;;;5103553;27;20040;-66
2023/12/08 05:26:23;;;;;;;24.05;17.20;;;1.20;99.90;;;;;;5102354;27;20047;-66
2023/12/08 05:28:49;;;;;;;25.88;17.88;;;1.10;99.90;;;;;;5094227;28;20036;-66
2023/12/08 05:31:15;;;;;;;24.88;17.58;;;1.20;99.90;;;;;;5099228;28;20435;-66
2023/12/08 05:33:40;;;;;;;24.20;17.67;;;1.10;99.90;;;;;;5098700;28;20108;-66
2023/12/08 05:36:06;;;;;;;24.10;17.33;;;1.10;99.90;;;;;;5096470;28;20039;-66
2023/12/08 05:38:32;;;;;;;25.48;17.58;;;1.10;99.90;;;;;;5097894;28;20454;-66
2023/12/08 05:40:57;;;;;;;26.10;18.52;;;1.00;99.90;;;;;;5100650;28;20127;-66
2023/12/08 05:43:23;;;;;;;26.90;18.67;;;1.10;99.90;;;;;;5096462;27;20040;-66
2023/12/08 05:45:48;;;;;;;28.88;19.30;;;1.10;99.90;;;;;;5082555;28;20042;-66
2023/12/08 05:48:14;;;;;;;25.75;17.60;;;1.10;99.90;;;;;;5130792;27;21152;-65
2023/12/08 05:50:40;;;;;;;27.40;18.52;;;1.10;99.90;;;;;;5099774;28;20107;-66
2023/12/08 05:53:06;;;;;;;27.25;17.90;;;1.10;99.90;;;;;;5097403;28;20508;-66
2023/12/08 05:55:32;;;;;;;25.98;18.70;;;1.10;99.90;;;;;;5095948;27;20043;-66
2023/12/08 05:57:57;;;;;;;25.73;17.20;;;1.10;99.90;;;;;;5097414;27;20481;-66
2023/12/08 06:00:23;;;;;;;25.35;17.90;;;1.10;99.90;;;;;;5099021;27;20047;-66
2023/12/08 06:02:48;;;;;;;26.92;19.40;;;1.10;99.90;;;;;;5097540;28;20122;-66
2023/12/08 06:05:15;;;;;;;29.80;19.02;;;1.10;99.90;;;;;;5130887;27;20382;-66
2023/12/08 06:07:41;;;;;;;30.52;19.20;;;1.10;99.90;;;;;;5092650;28;20108;-66
2023/12/08 06:10:11;;;;;;;29.13;19.33;;;1.10;99.90;;;;;;5090903;27;20040;-66
2023/12/08 06:12:37;;;;;;;29.25;20.00;;;1.00;99.90;;;;;;5092818;28;20043;-66
2023/12/08 06:15:05;;;;;;;31.80;20.13;;;1.00;99.90;;;;;;5094555;27;20524;-66
2023/12/08 06:17:31;;;;;;;27.02;19.20;;;1.00;99.90;;;;;;5095002;27;20087;-66
2023/12/08 06:19:57;;;;;;;29.65;20.33;;;1.10;99.90;;;;;;5095950;27;20040;-66
2023/12/08 06:22:22;;;;;;;30.30;19.73;;;1.10;99.90;;;;;;5097362;27;20140;-66
2023/12/08 06:24:48;;;;;;;30.90;19.20;;;1.10;99.90;;;;;;5091152;28;20047;-66
2023/12/08 06:27:15;;;;;;;29.05;19.02;;;1.10;99.90;;;;;;5094561;28;20051;-66
2023/12/08 06:29:41;;;;;;;29.58;20.58;;;1.10;99.90;;;;;;5093961;27;20047;-66
2023/12/08 06:32:06;;;;;;;33.80;20.27;;;1.00;99.90;;;;;;5090313;28;20032;-66
2023/12/08 06:34:32;;;;;;;35.80;21.40;;;1.10;99.90;;;;;;5092214;27;20196;-66
2023/12/08 06:36:58;;;;;;;36.00;20.48;;;1.10;99.90;;;;;;5090573;28;20375;-66
2023/12/08 06:39:24;;;;;;;31.30;20.52;;;1.10;99.90;;;;;;5089394;28;20055;-66
2023/12/08 06:41:49;;;;;;;35.85;22.30;;;1.10;99.90;;;;;;5092731;27;20194;-66
2023/12/08 06:44:15;;;;;;;35.33;21.30;;;1.10;99.90;;;;;;5092718;27;20051;-66
2023/12/08 06:46:42;;;;;;;33.25;22.33;;;1.00;99.90;;;;;;5090108;27;20100;-66
2023/12/08 06:49:08;;;;;;;30.90;19.85;;;1.10;99.90;;;;;;5092784;27;20100;-66
2023/12/08 06:51:35;;;;;;;28.45;20.33;;;1.10;99.90;;;;;;5098367;27;20036;-66
2023/12/08 06:54:02;;;;;;;32.20;19.70;;;1.10;99.90;;;;;;5093715;28;20043;-66
2023/12/08 06:56:27;;;;;;;32.45;21.67;;;1.10;99.90;;;;;;5094853;27;20189;-66
2023/12/08 06:58:53;;;;;;;29.92;21.30;;;1.10;99.90;;;;;;5092508;28;20588;-66
2023/12/08 07:01:19;;;;;;;29.13;20.33;;;1.10;99.90;;;;;;5094192;27;20738;-66
2023/12/08 07:03:44;;;;;;;31.55;20.27;;;1.10;99.90;;;;;;5093692;28;20222;-66
2023/12/08 07:06:10;;;;;;;28.95;20.05;;;1.10;99.90;;;;;;5074486;28;20466;-66
2023/12/08 07:08:35;;;;;;;29.40;19.67;;;1.10;99.90;;;;;;5096747;28;20102;-66
2023/12/08 07:11:01;;;;;;;31.90;20.08;;;1.10;99.90;;;;;;5091556;28;20043;-66
2023/12/08 07:13:27;;;;;;;35.20;21.20;;;1.10;99.90;;;;;;5092053;27;20035;-66
2023/12/08 07:15:52;;;;;;;33.95;20.70;;;1.10;99.90;;;;;;5094662;28;20047;-66
2023/12/08 07:18:18;;;;;;;34.33;21.35;;;1.10;99.90;;;;;;5090442;28;20126;-66
2023/12/08 07:20:44;;;;;;;32.65;20.90;;;1.10;99.90;;;;;;5093509;28;20042;-66
2023/12/08 07:23:10;;;;;;;35.13;21.80;;;1.10;99.90;;;;;;5093490;28;20393;-66
2023/12/08 07:25:36;;;;;;;31.92;20.77;;;1.10;99.90;;;;;;5090161;28;20083;-66
2023/12/08 07:28:02;;;;;;;32.15;21.17;;;1.10;99.90;;;;;;5098283;28;20501;-66
2023/12/08 07:30:27;;;;;;;32.97;19.77;;;1.10;99.90;;;;;;5093140;28;20042;-66
2023/12/08 07:32:53;;;;;;;32.55;21.02;;;1.10;99.90;;;;;;5099899;28;20069;-66
2023/12/08 07:35:19;;;;;;;33.97;20.83;;;1.10;99.90;;;;;;5096408;28;20397;-66
2023/12/08 07:37:45;;;;;;;31.92;20.52;;;1.10;99.90;;;;;;5095230;28;20044;-66
2023/12/08 07:40:11;;;;;;;37.67;21.45;;;1.10;99.90;;;;;;5092814;28;20494;-66
2023/12/08 07:42:37;;;;;;;32.85;22.10;;;1.10;99.90;;;;;;5098664;28;20043;-66
2023/12/08 07:45:06;;;;;;;32.92;20.48;;;1.20;99.90;;;;;;5097582;28;20035;-66
2023/12/08 07:47:32;;;;;;;32.15;20.70;;;1.20;99.90;;;;;;5099280;28;20119;-66
2023/12/08 07:50:01;;;;;;;34.42;21.52;;;1.20;99.90;;;;;;5096556;28;20467;-66
2023/12/08 07:52:26;;;;;;;33.97;21.85;;;1.10;99.90;;;;;;5097197;28;20035;-66
2023/12/08 07:54:52;;;;;;;31.02;20.50;;;1.20;99.90;;;;;;5097277;28;20085;-66
2023/12/08 07:57:20;;;;;;;37.08;21.27;;;1.20;99.90;;;;;;5094135;28;20040;-66
2023/12/08 07:59:47;;;;;;;35.15;21.98;;;1.20;99.90;;;;;;5090995;28;20126;-66
2023/12/08 08:02:12;;;;;;;34.33;20.83;;;1.20;99.90;;;;;;5098174;28;20047;-66
2023/12/08 08:04:38;;;;;;;32.88;20.85;;;1.20;99.90;;;;;;5098385;28;20039;-66
2023/12/08 08:07:04;;;;;;;31.58;19.98;;;1.20;99.90;;;;;;5097893;28;20401;-66
2023/12/08 08:09:29;;;;;;;32.40;20.33;;;1.20;99.90;;;;;;5109821;28;20078;-66
2023/12/08 08:11:55;;;;;;;30.38;21.52;;;1.20;99.90;;;;;;5093332;28;20126;-65
2023/12/08 08:14:20;;;;;;;30.55;21.63;;;1.20;99.90;;;;;;5096349;28;20396;-65
2023/12/08 08:16:47;;;;;;;30.98;20.77;;;1.30;99.90;;;;;;5094582;28;20036;-65
2023/12/08 08:19:13;;;;;;;29.98;19.98;;;1.30;99.90;;;;;;5097283;28;20059;-65
2023/12/08 08:21:39;;;;;;;33.70;20.63;;;1.20;99.90;;;;;;5131875;27;20047;-65
2023/12/08 08:24:05;;;;;;;31.20;19.98;;;1.30;99.90;;;;;;5096430;28;20132;-65
2023/12/08 08:26:30;;;;;;;29.48;20.45;;;1.30;99.90;;;;;;5093105;28;20035;-65
2023/12/08 08:28:56;;;;;;;33.80;22.00;;;1.30;99.90;;;;;;5094063;28;20032;-65
2023/12/08 08:31:22;;;;;;;31.10;20.30;;;1.30;99.90;;;;;;5101444;28;20032;-65
2023/12/08 08:33:48;;;;;;;30.40;19.42;;;1.30;99.90;;;;;;5097357;28;20039;-65
2023/12/08 08:36:14;;;;;;;28.88;18.90;;;1.30;99.90;;;;;;5100468;27;20043;-65
2023/12/08 08:38:40;;;;;;;35.17;20.85;;;1.30;99.90;;;;;;5102003;28;20040;-65
2023/12/08 08:41:06;;;;;;;30.33;20.15;;;1.30;99.90;;;;;;5102856;27;20051;-65
2023/12/08 08:43:31;;;;;;;30.02;19.20;;;1.30;99.90;;;;;;5098730;27;20055;-65
2023/12/08 08:45:57;;;;;;;28.83;19.88;;;1.30;99.90;;;;;;5097678;28;20065;-66
2023/12/08 08:48:23;;;;;;;30.35;20.05;;;1.30;99.90;;;;;;5097583;28;20108;-65
2023/12/08 08:50:48;;;;;;;30.25;20.30;;;1.30;99.90;;;;;;5098008;28;20148;-65
2023/12/08 08:53:17;;;;;;;29.35;19.88;;;1.30;99.90;;;;;;5090093;28;20123;-66
2023/12/08 08:55:44;;;;;;;28.52;18.67;;;1.30;99.90;;;;;;5102701;28;20043;-65
2023/12/08 08:58:10;;;;;;;27.95;19.02;;;1.30;99.90;;;;;;5090724;28;20032;-66
2023/12/08 09:00:36;;;;;;;28.00;19.10;;;1.30;99.90;;;;;;5084200;28;20390;-65
2023/12/08 09:03:02;;;;;;;27.52;17.92;;;1.30;99.90;;;;;;5101713;27;20546;-65
2023/12/08 09:05:30;;;;;;;28.17;18.48;;;1.30;99.90;;;;;;5102048;28;20122;-65
2023/12/08 09:07:56;;;;;;;32.72;19.75;;;1.40;99.90;;;;;;5104236;28;20040;-65
2023/12/08 09:10:22;;;;;;;28.30;17.85;;;1.40;99.90;;;;;;5120756;27;20043;-65
2023/12/08 09:12:48;;;;;;;28.65;19.65;;;1.40;99.90;;;;;;5099647;28;20036;-66
2023/12/08 09:15:14;;;;;;;28.63;19.00;;;1.40;99.90;;;;;;5102432;28;20119;-65
2023/12/08 09:17:41;;;;;;;26.88;18.13;;;1.40;99.90;;;;;;5099771;28;20051;-66
2023/12/08 09:20:12;;;;;;;27.63;18.58;;;1.40;99.90;;;;;;5101228;27;20043;-65
2023/12/08 09:22:38;;;;;;;27.08;18.67;;;1.40;99.90;;;;;;5100159;28;20176;-65
2023/12/08 09:25:04;;;;;;;29.17;19.02;;;1.40;99.90;;;;;;5102881;28;20852;-65
2023/12/08 09:27:30;;;;;;;28.60;19.48;;;1.30;99.90;;;;;;5105754;27;20035;-65
2023/12/08 09:29:56;;;;;;;27.85;18.77;;;1.40;99.90;;;;;;5101067;27;20043;-66
2023/12/08 09:32:22;;;;;;;27.17;18.10;;;1.40;99.90;;;;;;5100644;28;20033;-66
2023/12/08 09:34:48;;;;;;;31.52;20.08;;;1.50;99.90;;;;;;5100818;28;20044;-66
2023/12/08 09:37:14;;;;;;;32.22;19.80;;;1.50;99.90;;;;;;5098523;28;20063;-66
2023/12/08 09:39:39;;;;;;;29.52;20.20;;;1.50;99.90;;;;;;5113494;27;20070;-65
2023/12/08 09:42:14;;;;;;;27.25;18.77;;;1.50;99.90;;;;;;5098871;27;20687;-65
2023/12/08 09:44:40;;;;;;;29.77;19.90;;;1.50;99.90;;;;;;5082008;28;20036;-66
2023/12/08 09:47:08;;;;;;;27.35;19.85;;;1.50;99.90;;;;;;5098080;28;20048;-66
2023/12/08 09:49:42;;;;;;;30.08;19.73;;;1.50;99.90;;;;;;5097048;27;20046;-66
2023/12/08 09:52:12;;;;;;;30.60;20.10;;;1.50;99.90;;;;;;5097850;28;20039;-66
2023/12/08 09:54:38;;;;;;;31.15;19.60;;;1.50;99.90;;;;;;5098680;28;20060;-66
2023/12/08 09:57:05;;;;;;;28.00;19.33;;;1.50;99.90;;;;;;5096341;28;20724;-66
2023/12/08 09:59:31;;;;;;;28.67;20.13;;;1.50;99.90;;;;;;5099811;27;20036;-66
2023/12/08 10:01:57;;;;;;;28.83;20.75;;;1.50;99.90;;;;;;5098739;27;20060;-66
2023/12/08 10:04:26;;;;;;;31.25;20.50;;;1.60;99.90;;;;;;5101996;28;20051;-66
2023/12/08 10:06:55;;;;;;;30.63;19.90;;;1.60;99.90;;;;;;5097991;28;20040;-66
2023/12/08 10:09:22;;;;;;;28.23;20.52;;;1.60;99.90;;;;;;5097875;28;20043;-66
2023/12/08 10:11:49;;;;;;;29.55;20.65;;;1.60;99.90;;;;;;5099640;27;20119;-66
2023/12/08 10:14:17;;;;;;;29.92;20.63;;;1.60;99.90;;;;;;5099144;28;20046;-66
2023/12/08 10:16:46;;;;;;;33.38;20.67;;;1.70;99.90;;;;;;5083493;28;20070;-66
2023/12/08 10:19:12;;;;;;;28.00;19.92;;;1.70;99.90;;;;;;5096723;27;20040;-66
2023/12/08 10:21:38;;;;;;;35.40;21.35;;;1.60;99.90;;;;;;5093508;28;20065;-66
2023/12/08 10:24:04;;;;;;;32.75;22.00;;;1.70;99.90;;;;;;5096715;28;20048;-66
2023/12/08 10:26:34;;;;;;;35.65;21.35;;;1.70;99.90;;;;;;5094930;27;20086;-66
2023/12/08 10:29:01;;;;;;;31.85;21.33;;;1.70;99.90;;;;;;5095632;28;20036;-66
2023/12/08 10:31:27;;;;;;;34.60;21.25;;;1.70;99.90;;;;;;5091293;28;20047;-66
2023/12/08 10:33:56;;;;;;;31.20;20.45;;;1.70;99.90;;;;;;5100074;27;20040;-66
2023/12/08 10:36:22;;;;;;;33.20;21.00;;;1.70;99.90;;;;;;5081228;28;20100;-66
2023/12/08 10:38:49;;;;;;;32.92;22.20;;;1.70;99.90;;;;;;5096022;27;20052;-66
2023/12/08 10:41:16;;;;;;;32.28;22.38;;;1.70;99.90;;;;;;5100120;27;20089;-66
2023/12/08 10:43:43;;;;;;;39.30;23.13;;;1.70;99.90;;;;;;5098713;27;20035;-66
2023/12/08 10:46:09;;;;;;;38.45;24.10;;;1.80;99.90;;;;;;5095654;27;20048;-66
2023/12/08 10:48:37;;;;;;;38.75;23.73;;;1.80;99.90;;;;;;5095416;28;20483;-66
2023/12/08 10:51:04;;;;;;;39.47;23.45;;;1.80;99.90;;;;;;5099351;28;20116;-66
2023/12/08 10:53:31;;;;;;;40.35;23.65;;;1.80;99.90;;;;;;5097415;27;20074;-65
2023/12/08 10:56:03;;;;;;;43.58;25.25;;;1.90;99.90;;;;;;5097159;28;20087;-66
2023/12/08 10:58:32;;;;;;;41.08;22.95;;;1.90;99.90;;;;;;5097249;27;20092;-66
2023/12/08 11:01:00;;;;;;;40.47;24.60;;;1.90;99.90;;;;;;5080121;28;20047;-66
2023/12/08 11:03:34;;;;;;;44.88;24.67;;;1.90;99.90;;;;;;5096424;28;20036;-66
2023/12/08 11:06:07;;;;;;;43.50;22.95;;;1.90;99.90;;;;;;5097907;27;20116;-66
2023/12/08 11:08:34;;;;;;;50.88;25.02;;;2.00;99.90;;;;;;5094739;27;20052;-66
2023/12/08 11:11:04;;;;;;;43.85;24.85;;;1.90;99.90;;;;;;5094772;28;20582;-66
2023/12/08 11:13:34;;;;;;;41.85;23.65;;;1.90;99.90;;;;;;5095586;28;20051;-66
2023/12/08 11:16:25;;;;;;;44.60;23.45;;;2.00;99.90;;;;;;5094362;27;20054;-66
2023/12/08 11:18:52;;;;;;;46.97;23.98;;;1.90;99.90;;;;;;5094168;28;20055;-66
2023/12/08 11:21:18;;;;;;;50.75;24.10;;;2.00;99.90;;;;;;5095256;27;20052;-66
2023/12/08 11:23:44;;;;;;;49.78;25.38;;;2.00;99.90;;;;;;5096139;28;20035;-66
2023/12/08 11:26:22;;;;;;;47.72;25.58;;;2.00;99.90;;;;;;5095739;28;20583;-66
2023/12/08 11:29:03;;;;;;;44.83;23.67;;;2.00;99.90;;;;;;5095423;28;20040;-66
2023/12/08 11:31:48;;;;;;;47.53;24.27;;;2.00;99.90;;;;;;5096152;28;20051;-66
2023/12/08 11:34:24;;;;;;;55.33;24.52;;;2.00;99.90;;;;;;5099290;28;20126;-66
2023/12/08 11:36:50;;;;;;;40.80;24.27;;;2.00;99.90;;;;;;5097579;28;20192;-66
2023/12/08 11:39:35;;;;;;;52.42;24.08;;;1.90;99.90;;;;;;5093413;28;20051;-65
2023/12/08 11:42:06;;;;;;;56.67;26.02;;;2.00;99.90;;;;;;5094095;28;20063;-65
2023/12/08 11:44:37;;;;;;;47.92;24.60;;;1.90;99.90;;;;;;5094298;28;20429;-66
2023/12/08 11:47:08;;;;;;;53.08;25.63;;;1.90;99.90;;;;;;5089204;28;20155;-66
2023/12/08 11:49:37;;;;;;;45.08;23.80;;;1.90;99.90;;;;;;5093170;28;20083;-65
2023/12/08 11:52:15;;;;;;;48.00;26.40;;;2.00;99.90;;;;;;5094354;28;20113;-65
2023/12/08 11:55:12;;;;;;;49.03;25.90;;;2.00;99.90;;;;;;5074688;28;20067;-66
2023/12/08 11:58:00;;;;;;;54.80;26.00;;;2.00;99.90;;;;;;5042572;28;20048;-66
2023/12/08 12:00:28;;;;;;;56.75;25.80;;;1.90;99.90;;;;;;5056798;28;20575;-66
2023/12/08 12:02:55;;;;;;;66.97;26.55;;;2.00;99.90;;;;;;5043227;28;20067;-65
2023/12/08 12:05:21;;;;;;;47.38;25.00;;;1.90;99.90;;;;;;5033334;28;20056;-65
2023/12/08 12:07:49;;;;;;;45.70;25.05;;;2.00;99.90;;;;;;5035903;28;20044;-66
2023/12/08 12:10:24;;;;;;;46.97;24.92;;;2.00;99.90;;;;;;5025952;28;20056;-66
2023/12/08 12:13:12;;;;;;;51.47;25.15;;;2.00;99.90;;;;;;5017875;28;20088;-66
2023/12/08 12:15:40;;;;;;;53.88;25.85;;;2.00;99.90;;;;;;5051946;28;20048;-66
2023/12/08 12:18:07;;;;;;;50.30;25.52;;;2.00;99.90;;;;;;5058817;28;20080;-65
2023/12/08 12:20:35;;;;;;;51.58;26.30;;;2.10;99.90;;;;;;5057647;28;20049;-66
2023/12/08 12:23:02;;;;;;;50.25;25.70;;;2.10;99.90;;;;;;5057091;28;20072;-66
2023/12/08 12:25:28;;;;;;;47.90;23.77;;;2.10;99.90;;;;;;5060137;28;20425;-66
2023/12/08 12:27:54;;;;;;;45.38;26.48;;;2.10;99.90;;;;;;5057720;28;20045;-66
2023/12/08 12:30:20;;;;;;;48.20;25.80;;;2.10;99.90;;;;;;5058736;28;20635;-67
2023/12/08 12:32:49;;;;;;;48.33;26.40;;;2.10;99.90;;;;;;5057662;28;20049;-67
2023/12/08 12:35:16;;;;;;;54.35;26.45;;;2.10;99.90;;;;;;5061708;28;20039;-67
2023/12/08 12:37:42;;;;;;;55.65;26.23;;;2.20;99.90;;;;;;5057982;28;20044;-67